Time;durP1;ratioP1;P1;durP2;ratioP2;P2;SDS_P1;SDS_P2;PMS_P1;PMS_P2;Temp;Humidity;BMP_temperature;BMP_pressure;BME280_temperature;BME280_humidity;BME280_pressure;Samples;Min_cycle;Max_cycle;Signal;HPM_P1;HPM_P2
2022/04/18 00:01:54;;;;;;;4.72;1.52;;;;;;;;;;5016946;28;20061;-67
2022/04/18 00:04:19;;;;;;;4.90;1.98;;;;;;;;;;5012143;28;20065;-67
2022/04/18 00:06:45;;;;;;;6.50;1.70;;;;;;;;;;4996757;28;20037;-67
2022/04/18 00:09:11;;;;;;;6.65;1.08;;;;;;;;;;4996930;28;20051;-67
2022/04/18 00:11:36;;;;;;;4.43;1.45;;;;;;;;;;5011332;28;20133;-67
2022/04/18 00:14:02;;;;;;;3.60;1.50;;;;;;;;;;5016618;28;20038;-67
2022/04/18 00:16:28;;;;;;;4.25;1.20;;;;;;;;;;5031942;28;20057;-67
2022/04/18 00:18:53;;;;;;;4.18;1.17;;;;;;;;;;5016212;28;20811;-67
2022/04/18 00:21:19;;;;;;;9.23;1.60;;;;;;;;;;5016406;28;20112;-67
2022/04/18 00:23:45;;;;;;;7.53;1.63;;;;;;;;;;5031839;28;20032;-67
2022/04/18 00:26:10;;;;;;;9.60;1.45;;;;;;;;;;5016280;28;20045;-67
2022/04/18 00:28:36;;;;;;;4.68;1.60;;;;;;;;;;5015943;28;20061;-67
2022/04/18 00:31:01;;;;;;;10.93;2.55;;;;;;;;;;5016343;28;20034;-67
2022/04/18 00:33:27;;;;;;;6.18;2.13;;;;;;;;;;5016378;28;20042;-67
2022/04/18 00:35:53;;;;;;;3.92;1.77;;;;;;;;;;5016175;28;20053;-67
2022/04/18 00:38:18;;;;;;;10.23;2.20;;;;;;;;;;5016204;28;20029;-67
2022/04/18 00:40:44;;;;;;;10.43;2.58;;;;;;;;;;5015903;28;20038;-67
2022/04/18 00:43:10;;;;;;;7.35;2.40;;;;;;;;;;5016098;28;20026;-67
2022/04/18 00:45:35;;;;;;;9.30;2.53;;;;;;;;;;5016017;28;20113;-67
2022/04/18 00:48:01;;;;;;;4.53;2.40;;;;;;;;;;5015700;28;20048;-67
2022/04/18 00:50:29;;;;;;;11.52;2.10;;;;;;;;;;5031244;28;20037;-67
2022/04/18 00:52:54;;;;;;;8.45;2.17;;;;;;;;;;5014815;28;20058;-67
2022/04/18 00:55:22;;;;;;;6.25;2.38;;;;;;;;;;5031122;28;20087;-67
2022/04/18 00:57:48;;;;;;;6.35;2.42;;;;;;;;;;5030857;28;20022;-67
2022/04/18 01:00:14;;;;;;;9.77;2.53;;;;;;;;;;5015522;28;20038;-67
2022/04/18 01:02:39;;;;;;;7.15;2.55;;;;;;;;;;5015603;28;20041;-67
2022/04/18 01:05:05;;;;;;;8.88;2.40;;;;;;;;;;5015563;28;20060;-67
2022/04/18 01:07:31;;;;;;;5.45;2.28;;;;;;;;;;5015291;28;20080;-67
2022/04/18 01:09:57;;;;;;;16.25;2.53;;;;;;;;;;5012703;28;20049;-67
2022/04/18 01:12:22;;;;;;;6.80;2.38;;;;;;;;;;4996003;28;20084;-67
2022/04/18 01:14:48;;;;;;;9.95;2.90;;;;;;;;;;4995969;28;20101;-67
2022/04/18 01:17:15;;;;;;;8.73;3.10;;;;;;;;;;4995947;28;20042;-67
2022/04/18 01:19:40;;;;;;;9.68;2.90;;;;;;;;;;4995463;28;20462;-67
2022/04/18 01:22:10;;;;;;;8.32;2.72;;;;;;;;;;4995904;28;20033;-66
2022/04/18 01:30:04;;;;;;;;;;;;;;;;;;5008801;28;20092;-67
2022/04/18 01:32:30;;;;;;;15.07;2.65;;;;;;;;;;4995208;28;19910;-67
2022/04/18 01:34:57;;;;;;;14.52;2.92;;;;;;;;;;4995563;28;20031;-66
2022/04/18 01:37:22;;;;;;;14.07;3.00;;;;;;;;;;4995119;28;20544;-67
2022/04/18 01:39:48;;;;;;;10.02;2.97;;;;;;;;;;4995546;28;20030;-67
2022/04/18 01:42:13;;;;;;;15.27;4.03;;;;;;;;;;4995415;28;20095;-67
2022/04/18 01:44:39;;;;;;;7.70;2.90;;;;;;;;;;4995277;28;20122;-67
2022/04/18 01:47:05;;;;;;;12.38;3.05;;;;;;;;;;4995334;28;20406;-67
2022/04/18 01:49:30;;;;;;;11.50;3.25;;;;;;;;;;4995296;28;20034;-66
2022/04/18 01:51:56;;;;;;;9.35;3.35;;;;;;;;;;4995227;28;20033;-67
2022/04/18 01:54:22;;;;;;;12.48;3.22;;;;;;;;;;4995210;28;20065;-66
2022/04/18 01:56:47;;;;;;;13.98;3.55;;;;;;;;;;4995127;28;20455;-67
2022/04/18 01:59:13;;;;;;;10.30;3.22;;;;;;;;;;4994685;28;20030;-66
2022/04/18 02:01:38;;;;;;;13.23;3.92;;;;;;;;;;4994882;28;20062;-67
2022/04/18 02:04:04;;;;;;;13.15;4.20;;;;;;;;;;4995027;28;20042;-67
2022/04/18 02:06:29;;;;;;;13.55;4.20;;;;;;;;;;4994814;28;20038;-67
2022/04/18 02:08:54;;;;;;;11.85;4.35;;;;;;;;;;4994090;28;20497;-67
2022/04/18 02:11:20;;;;;;;13.05;4.30;;;;;;;;;;5008448;28;20041;-67
2022/04/18 02:13:46;;;;;;;12.75;3.67;;;;;;;;;;5013220;28;20029;-67
2022/04/18 02:16:11;;;;;;;14.10;3.33;;;;;;;;;;5029730;28;20117;-66
2022/04/18 02:18:37;;;;;;;20.00;3.90;;;;;;;;;;5014327;28;20371;-67
2022/04/18 02:21:03;;;;;;;15.88;4.50;;;;;;;;;;5029488;28;20049;-67
2022/04/18 02:23:28;;;;;;;8.10;4.43;;;;;;;;;;5014288;28;20072;-67
2022/04/18 02:25:53;;;;;;;13.13;4.55;;;;;;;;;;5014171;28;20034;-67
2022/04/18 02:28:19;;;;;;;15.38;4.43;;;;;;;;;;5014090;28;20044;-67
2022/04/18 02:30:44;;;;;;;10.80;3.90;;;;;;;;;;5013873;28;20034;-66
2022/04/18 02:33:10;;;;;;;13.75;5.03;;;;;;;;;;5014060;28;20062;-66
2022/04/18 02:35:35;;;;;;;12.23;4.50;;;;;;;;;;5029240;28;20040;-67
2022/04/18 02:38:01;;;;;;;16.73;4.28;;;;;;;;;;5014083;28;20429;-67
2022/04/18 02:40:26;;;;;;;17.55;5.40;;;;;;;;;;5013999;28;20103;-67
2022/04/18 02:42:52;;;;;;;17.55;4.13;;;;;;;;;;5029181;28;20535;-66
2022/04/18 02:45:18;;;;;;;15.68;4.05;;;;;;;;;;5013903;28;20033;-67
2022/04/18 02:47:45;;;;;;;17.50;4.93;;;;;;;;;;5012635;28;20034;-66
2022/04/18 02:50:10;;;;;;;19.45;3.92;;;;;;;;;;5013654;28;20045;-66
2022/04/18 02:52:36;;;;;;;19.10;4.30;;;;;;;;;;5013510;28;20038;-67
2022/04/18 02:55:02;;;;;;;12.32;3.92;;;;;;;;;;5013847;28;20038;-66
2022/04/18 02:57:28;;;;;;;17.58;3.65;;;;;;;;;;5013681;28;20030;-66
2022/04/18 02:59:53;;;;;;;18.45;3.88;;;;;;;;;;5013821;28;20079;-66
2022/04/18 03:02:18;;;;;;;19.42;3.92;;;;;;;;;;5013653;28;20041;-66
2022/04/18 03:04:44;;;;;;;8.40;3.97;;;;;;;;;;4993234;28;20069;-66
2022/04/18 03:07:09;;;;;;;16.17;4.00;;;;;;;;;;4974612;28;20539;-67
2022/04/18 03:09:35;;;;;;;10.90;3.97;;;;;;;;;;4974517;28;20046;-66
2022/04/18 03:12:02;;;;;;;13.63;4.30;;;;;;;;;;5012676;28;20030;-67
2022/04/18 03:14:28;;;;;;;17.98;4.05;;;;;;;;;;5013698;28;20432;-67
2022/04/18 03:16:54;;;;;;;14.95;4.35;;;;;;;;;;5012230;28;20041;-67
2022/04/18 03:19:19;;;;;;;16.00;3.97;;;;;;;;;;5028484;28;20458;-66
2022/04/18 03:21:45;;;;;;;24.02;4.43;;;;;;;;;;5015469;28;20085;-67
2022/04/18 03:24:10;;;;;;;14.50;4.30;;;;;;;;;;5017845;28;20045;-67
2022/04/18 03:26:36;;;;;;;21.83;4.32;;;;;;;;;;5017385;28;20033;-67
2022/04/18 03:29:01;;;;;;;10.10;3.83;;;;;;;;;;5017478;28;20059;-66
2022/04/18 03:31:27;;;;;;;14.75;4.38;;;;;;;;;;5017089;28;20037;-67
2022/04/18 03:33:52;;;;;;;17.85;4.35;;;;;;;;;;5032787;28;20038;-66
2022/04/18 03:41:46;;;;;;;;;;;;;;;;;;5017343;28;20389;-67
2022/04/18 03:44:11;;;;;;;15.82;4.00;;;;;;;;;;5017222;28;19917;-66
2022/04/18 03:46:37;;;;;;;10.40;3.65;;;;;;;;;;5017104;28;20034;-66
2022/04/18 03:49:02;;;;;;;19.63;4.45;;;;;;;;;;5017188;28;20076;-67
2022/04/18 03:51:28;;;;;;;16.58;4.53;;;;;;;;;;5032404;28;20116;-67
2022/04/18 03:53:53;;;;;;;13.15;4.25;;;;;;;;;;5017093;28;20104;-67
2022/04/18 03:56:19;;;;;;;13.63;4.38;;;;;;;;;;5016931;28;20034;-66
2022/04/18 03:58:44;;;;;;;20.40;4.93;;;;;;;;;;5017082;28;20062;-66
2022/04/18 04:01:10;;;;;;;11.93;4.32;;;;;;;;;;5016891;28;20034;-67
2022/04/18 04:03:35;;;;;;;19.00;4.18;;;;;;;;;;5016985;28;20037;-67
2022/04/18 04:06:00;;;;;;;22.67;5.00;;;;;;;;;;5016396;28;20450;-66
2022/04/18 04:08:28;;;;;;;16.60;4.22;;;;;;;;;;5016437;28;20121;-67
2022/04/18 04:10:53;;;;;;;14.15;4.10;;;;;;;;;;5021661;28;20030;-66
2022/04/18 04:13:19;;;;;;;20.20;4.45;;;;;;;;;;4997053;28;20034;-66
2022/04/18 04:15:44;;;;;;;16.15;3.88;;;;;;;;;;4997031;28;20042;-67
2022/04/18 04:18:10;;;;;;;14.73;4.00;;;;;;;;;;4997073;28;20031;-66
2022/04/18 04:20:35;;;;;;;9.80;3.58;;;;;;;;;;4996982;28;20031;-66
2022/04/18 04:23:01;;;;;;;22.17;4.10;;;;;;;;;;4996906;28;20058;-66
2022/04/18 04:25:26;;;;;;;18.65;3.95;;;;;;;;;;4996822;28;20117;-67
2022/04/18 04:27:52;;;;;;;5.53;3.30;;;;;;;;;;4996803;28;20517;-67
2022/04/18 04:30:17;;;;;;;9.18;3.13;;;;;;;;;;4996704;28;20030;-66
2022/04/18 04:32:42;;;;;;;17.23;3.97;;;;;;;;;;4996151;28;20355;-66
2022/04/18 04:35:09;;;;;;;18.40;3.80;;;;;;;;;;4996434;28;20042;-66
2022/04/18 04:37:34;;;;;;;17.23;4.00;;;;;;;;;;4996641;28;20022;-67
2022/04/18 04:40:00;;;;;;;16.52;3.47;;;;;;;;;;4996633;28;20521;-66
2022/04/18 04:42:25;;;;;;;10.55;2.80;;;;;;;;;;4996513;28;20038;-66
2022/04/18 04:44:50;;;;;;;13.65;4.03;;;;;;;;;;4996462;28;20034;-66
2022/04/18 04:47:16;;;;;;;11.77;3.13;;;;;;;;;;4996500;28;20474;-66
2022/04/18 04:49:41;;;;;;;18.55;3.47;;;;;;;;;;4996364;28;20038;-66
2022/04/18 04:52:07;;;;;;;9.45;3.15;;;;;;;;;;4996521;28;20034;-66
2022/04/18 04:54:34;;;;;;;18.25;3.22;;;;;;;;;;4996459;28;20042;-66
2022/04/18 04:56:59;;;;;;;13.98;3.65;;;;;;;;;;4995879;28;20525;-66
2022/04/18 04:59:25;;;;;;;10.57;3.80;;;;;;;;;;4996238;28;20105;-66
2022/04/18 05:01:50;;;;;;;15.15;3.80;;;;;;;;;;4996219;28;20038;-67
2022/04/18 05:04:15;;;;;;;14.55;2.97;;;;;;;;;;4996224;28;20045;-66
2022/04/18 05:06:41;;;;;;;13.18;3.45;;;;;;;;;;4995943;28;20027;-67
2022/04/18 05:09:06;;;;;;;9.27;3.85;;;;;;;;;;4996124;28;20057;-67
2022/04/18 05:11:32;;;;;;;10.55;3.17;;;;;;;;;;5011252;28;20073;-67
2022/04/18 05:13:58;;;;;;;10.32;3.00;;;;;;;;;;5015539;28;20064;-66
2022/04/18 05:16:24;;;;;;;12.55;3.22;;;;;;;;;;5015323;28;20034;-66
2022/04/18 05:18:50;;;;;;;12.85;3.30;;;;;;;;;;5015338;28;20030;-66
2022/04/18 05:21:15;;;;;;;17.98;3.30;;;;;;;;;;5015514;28;20377;-66
2022/04/18 05:23:41;;;;;;;9.25;2.88;;;;;;;;;;5015386;28;20442;-67
2022/04/18 05:26:06;;;;;;;14.35;2.83;;;;;;;;;;5015364;28;20041;-67
2022/04/18 05:28:32;;;;;;;15.48;3.17;;;;;;;;;;5015298;28;20034;-66
2022/04/18 05:30:57;;;;;;;12.02;3.15;;;;;;;;;;5015131;28;20045;-66
2022/04/18 05:33:23;;;;;;;9.80;2.85;;;;;;;;;;5015234;28;20038;-66
2022/04/18 05:35:49;;;;;;;15.40;2.97;;;;;;;;;;5014849;28;20487;-66
2022/04/18 05:38:15;;;;;;;15.35;3.13;;;;;;;;;;5015117;28;20021;-67
2022/04/18 05:40:41;;;;;;;13.00;2.70;;;;;;;;;;5030317;28;20497;-67
2022/04/18 05:43:08;;;;;;;16.17;2.88;;;;;;;;;;5014745;28;20062;-66
2022/04/18 05:45:34;;;;;;;15.48;2.88;;;;;;;;;;5014646;28;20026;-66
2022/04/18 05:47:59;;;;;;;13.60;2.65;;;;;;;;;;5030233;28;20045;-66
2022/04/18 05:50:25;;;;;;;17.95;3.03;;;;;;;;;;5015010;28;20029;-66
2022/04/18 05:52:50;;;;;;;12.68;2.78;;;;;;;;;;5014814;28;20156;-67
2022/04/18 05:55:16;;;;;;;9.70;3.03;;;;;;;;;;5014887;28;20044;-66
2022/04/18 05:57:41;;;;;;;11.35;2.97;;;;;;;;;;5014638;28;20077;-66
2022/04/18 06:00:07;;;;;;;12.82;2.97;;;;;;;;;;5014945;28;20454;-67
2022/04/18 06:02:32;;;;;;;17.20;2.90;;;;;;;;;;5014608;28;20083;-66
2022/04/18 06:04:58;;;;;;;13.95;2.70;;;;;;;;;;5014795;28;20030;-66
2022/04/18 06:07:23;;;;;;;9.23;2.97;;;;;;;;;;5029872;28;20057;-67
2022/04/18 06:09:49;;;;;;;12.40;2.38;;;;;;;;;;5013084;28;20038;-66
2022/04/18 06:12:21;;;;;;;11.57;2.80;;;;;;;;;;4994679;28;20022;-67
2022/04/18 06:14:47;;;;;;;9.73;2.33;;;;;;;;;;4995152;28;20425;-66
2022/04/18 06:17:12;;;;;;;12.48;2.88;;;;;;;;;;4994617;28;20034;-67
2022/04/18 06:19:37;;;;;;;13.85;2.83;;;;;;;;;;4994393;28;20027;-67
2022/04/18 06:22:03;;;;;;;8.38;2.80;;;;;;;;;;4994842;28;20030;-66
2022/04/18 06:24:29;;;;;;;15.10;2.97;;;;;;;;;;4994582;28;20042;-67
2022/04/18 06:26:54;;;;;;;11.15;2.50;;;;;;;;;;4994605;28;20466;-66
2022/04/18 06:29:20;;;;;;;15.50;2.90;;;;;;;;;;5009536;28;20038;-67
2022/04/18 06:31:46;;;;;;;8.05;2.35;;;;;;;;;;4994408;28;20047;-66
2022/04/18 06:34:12;;;;;;;7.22;2.50;;;;;;;;;;4994232;28;20422;-67
2022/04/18 06:36:38;;;;;;;7.75;2.17;;;;;;;;;;5009493;28;20042;-67
2022/04/18 06:39:03;;;;;;;8.55;2.20;;;;;;;;;;4994503;28;20026;-67
2022/04/18 06:41:29;;;;;;;11.65;2.28;;;;;;;;;;4994405;28;20039;-67
2022/04/18 06:43:54;;;;;;;13.35;2.53;;;;;;;;;;4994518;28;20470;-67
2022/04/18 06:46:20;;;;;;;10.45;2.75;;;;;;;;;;4994152;28;20125;-67
2022/04/18 06:48:45;;;;;;;7.75;2.30;;;;;;;;;;4994210;28;20371;-67
2022/04/18 06:51:11;;;;;;;4.07;1.80;;;;;;;;;;4994403;28;20030;-66
2022/04/18 06:53:36;;;;;;;7.65;1.92;;;;;;;;;;4994019;28;20038;-67
2022/04/18 06:58:46;;;;;;;9.23;2.08;;;;;;;;;;4993892;28;20092;-67
2022/04/18 07:01:11;;;;;;;8.95;1.90;;;;;;;;;;4994160;28;20034;-67
2022/04/18 07:03:37;;;;;;;9.85;1.80;;;;;;;;;;4994086;28;20018;-67
2022/04/18 07:06:02;;;;;;;12.85;2.20;;;;;;;;;;5009083;28;20042;-67
2022/04/18 07:08:28;;;;;;;8.02;1.80;;;;;;;;;;4993936;28;20042;-67
2022/04/18 07:10:53;;;;;;;5.20;1.88;;;;;;;;;;5004004;28;20029;-67
2022/04/18 07:13:18;;;;;;;6.22;1.90;;;;;;;;;;5013760;28;20029;-67
2022/04/18 07:15:44;;;;;;;6.50;1.60;;;;;;;;;;5013724;28;20049;-67
2022/04/18 07:18:09;;;;;;;5.85;2.38;;;;;;;;;;5013628;28;20045;-67
2022/04/18 07:20:35;;;;;;;12.93;2.17;;;;;;;;;;5013648;28;20034;-67
2022/04/18 07:23:00;;;;;;;7.07;2.55;;;;;;;;;;5013556;28;20061;-67
2022/04/18 07:25:26;;;;;;;9.40;2.10;;;;;;;;;;5013422;28;20351;-67
2022/04/18 07:27:51;;;;;;;5.20;2.33;;;;;;;;;;5013482;28;20038;-67
2022/04/18 07:30:17;;;;;;;6.85;1.90;;;;;;;;;;5013549;28;20034;-67
2022/04/18 07:32:43;;;;;;;5.60;1.75;;;;;;;;;;5013481;28;20038;-67
2022/04/18 07:35:10;;;;;;;3.40;1.55;;;;;;;;;;5013632;28;20045;-67
2022/04/18 07:37:36;;;;;;;6.40;1.73;;;;;;;;;;5013422;28;20034;-67
2022/04/18 07:40:02;;;;;;;5.88;1.40;;;;;;;;;;5013283;28;20448;-67
2022/04/18 07:42:27;;;;;;;6.22;1.65;;;;;;;;;;5013542;28;20034;-67
2022/04/18 07:44:53;;;;;;;7.43;1.50;;;;;;;;;;5013388;28;20042;-67
2022/04/18 07:47:18;;;;;;;6.85;1.63;;;;;;;;;;5013252;28;20073;-67
2022/04/18 07:49:43;;;;;;;6.10;2.00;;;;;;;;;;5013441;28;20026;-68
2022/04/18 07:52:11;;;;;;;7.63;1.95;;;;;;;;;;5013311;28;20457;-68
2022/04/18 07:54:36;;;;;;;6.72;1.77;;;;;;;;;;5013301;28;20065;-68
2022/04/18 07:57:04;;;;;;;8.88;2.35;;;;;;;;;;5013547;28;20061;-67
2022/04/18 07:59:30;;;;;;;8.00;2.17;;;;;;;;;;5013207;28;20034;-68
2022/04/18 08:01:56;;;;;;;7.60;1.80;;;;;;;;;;5013235;28;20468;-68
2022/04/18 08:04:21;;;;;;;6.78;1.70;;;;;;;;;;5013322;28;20382;-68
2022/04/18 08:06:46;;;;;;;9.73;2.22;;;;;;;;;;5013220;28;20401;-68
2022/04/18 08:09:12;;;;;;;13.65;2.85;;;;;;;;;;5016447;28;20042;-68
2022/04/18 08:11:37;;;;;;;7.00;2.08;;;;;;;;;;5015650;28;20034;-68
2022/04/18 08:14:03;;;;;;;7.25;1.70;;;;;;;;;;4997164;28;20113;-68
2022/04/18 08:16:28;;;;;;;10.82;2.30;;;;;;;;;;4997128;28;20042;-67
2022/04/18 08:18:55;;;;;;;8.20;1.95;;;;;;;;;;4997011;28;20022;-68
2022/04/18 08:21:20;;;;;;;11.45;2.40;;;;;;;;;;5012093;28;20096;-68
2022/04/18 08:23:47;;;;;;;8.60;2.17;;;;;;;;;;4996614;28;20034;-68
2022/04/18 08:26:13;;;;;;;5.60;1.88;;;;;;;;;;4996690;28;20454;-68
2022/04/18 08:28:39;;;;;;;9.70;2.13;;;;;;;;;;4997162;28;20053;-68
2022/04/18 08:31:05;;;;;;;10.50;2.10;;;;;;;;;;4996697;28;20073;-68
2022/04/18 08:33:31;;;;;;;10.95;2.03;;;;;;;;;;4996553;28;20117;-68
2022/04/18 08:35:57;;;;;;;6.93;1.77;;;;;;;;;;4996813;28;20828;-67
2022/04/18 08:38:24;;;;;;;6.57;1.83;;;;;;;;;;4996810;28;20038;-68
2022/04/18 08:40:50;;;;;;;6.60;1.63;;;;;;;;;;5011770;28;20034;-68
2022/04/18 08:43:16;;;;;;;8.70;2.00;;;;;;;;;;4995445;28;20050;-68
2022/04/18 08:45:41;;;;;;;9.48;1.98;;;;;;;;;;4996489;28;20045;-68
2022/04/18 08:53:36;;;;;;;9.38;1.83;;;;;;;;;;4996183;28;20399;-68
2022/04/18 08:56:02;;;;;;;9.15;1.98;;;;;;;;;;4996423;28;20043;-68
2022/04/18 08:58:28;;;;;;;7.28;1.80;;;;;;;;;;4995010;28;20503;-68
2022/04/18 09:00:55;;;;;;;7.47;2.20;;;;;;;;;;4996357;28;20057;-68
2022/04/18 09:03:21;;;;;;;10.85;2.00;;;;;;;;;;4996271;28;20045;-68
2022/04/18 09:05:47;;;;;;;5.20;1.80;;;;;;;;;;4996163;28;20027;-68
2022/04/18 09:08:12;;;;;;;8.77;2.13;;;;;;;;;;4996278;28;20037;-69
2022/04/18 09:10:40;;;;;;;6.43;2.03;;;;;;;;;;5003365;28;20050;-68
2022/04/18 09:13:10;;;;;;;6.38;2.13;;;;;;;;;;5015808;28;20030;-68
2022/04/18 09:15:40;;;;;;;8.75;1.90;;;;;;;;;;5031004;28;20053;-68
2022/04/18 09:18:13;;;;;;;9.55;2.20;;;;;;;;;;5015540;28;20038;-68
2022/04/18 09:20:43;;;;;;;10.73;2.50;;;;;;;;;;5015426;28;20041;-68
2022/04/18 09:23:32;;;;;;;6.68;2.95;;;;;;;;;;5015570;28;20030;-69
2022/04/18 09:26:02;;;;;;;5.72;1.75;;;;;;;;;;5014158;28;20049;-69
2022/04/18 09:28:29;;;;;;;6.93;2.05;;;;;;;;;;5015529;28;20038;-68
2022/04/18 09:30:59;;;;;;;8.73;2.10;;;;;;;;;;5015300;28;20037;-68
2022/04/18 09:33:29;;;;;;;8.05;2.33;;;;;;;;;;5015390;28;20088;-68
2022/04/18 09:36:07;;;;;;;7.32;1.80;;;;;;;;;;5015075;28;20128;-69
2022/04/18 09:38:42;;;;;;;6.82;2.03;;;;;;;;;;5015156;28;20041;-69
2022/04/18 09:41:12;;;;;;;7.93;2.30;;;;;;;;;;5015249;28;20042;-68
2022/04/18 09:43:42;;;;;;;9.35;2.00;;;;;;;;;;5015142;28;20482;-68
2022/04/18 09:46:09;;;;;;;6.18;1.95;;;;;;;;;;5015042;28;20042;-69
2022/04/18 09:48:35;;;;;;;6.68;1.90;;;;;;;;;;5015151;28;20038;-69
2022/04/18 09:51:12;;;;;;;6.30;1.67;;;;;;;;;;5014567;28;20405;-68
2022/04/18 09:53:40;;;;;;;7.07;2.17;;;;;;;;;;5030163;28;20038;-68
2022/04/18 09:56:07;;;;;;;12.13;1.90;;;;;;;;;;5014992;28;20041;-68
2022/04/18 09:58:33;;;;;;;5.97;1.85;;;;;;;;;;5014925;28;20103;-68
2022/04/18 10:01:04;;;;;;;13.13;1.98;;;;;;;;;;5013314;28;20475;-68
2022/04/18 10:03:30;;;;;;;8.10;2.10;;;;;;;;;;5014739;28;20065;-68
2022/04/18 10:05:58;;;;;;;9.13;1.58;;;;;;;;;;5014793;28;20034;-68
2022/04/18 10:08:23;;;;;;;6.38;1.98;;;;;;;;;;5014304;28;20538;-68
2022/04/18 10:10:48;;;;;;;5.72;1.98;;;;;;;;;;5005093;28;20113;-68
2022/04/18 10:13:14;;;;;;;7.20;2.10;;;;;;;;;;4995373;28;20113;-68
2022/04/18 10:15:40;;;;;;;9.75;2.35;;;;;;;;;;4993864;28;20054;-68
2022/04/18 10:18:07;;;;;;;6.88;1.63;;;;;;;;;;4994967;28;20566;-68
2022/04/18 10:21:06;;;;;;;12.07;3.00;;;;;;;;;;4994817;28;20034;-68
2022/04/18 10:23:39;;;;;;;12.05;2.67;;;;;;;;;;4994688;28;20045;-68
2022/04/18 10:26:33;;;;;;;9.65;3.03;;;;;;;;;;5009869;28;20129;-68
2022/04/18 10:29:06;;;;;;;7.95;2.15;;;;;;;;;;4994698;28;20034;-68
2022/04/18 10:31:39;;;;;;;8.23;2.92;;;;;;;;;;4992717;28;20493;-68
2022/04/18 10:34:05;;;;;;;6.18;1.88;;;;;;;;;;5009850;28;20074;-67
2022/04/18 10:36:32;;;;;;;8.27;2.10;;;;;;;;;;4994105;28;20591;-68
2022/04/18 10:39:02;;;;;;;8.43;1.80;;;;;;;;;;5009690;28;20037;-68
2022/04/18 10:41:44;;;;;;;5.70;1.73;;;;;;;;;;4994547;28;20377;-68
2022/04/18 10:44:13;;;;;;;5.32;1.40;;;;;;;;;;4994573;28;20517;-68
2022/04/18 10:46:41;;;;;;;10.73;1.92;;;;;;;;;;5009403;28;20054;-68
2022/04/18 10:49:17;;;;;;;6.43;1.60;;;;;;;;;;4994519;28;20033;-68
2022/04/18 10:51:45;;;;;;;5.88;2.00;;;;;;;;;;4994078;28;20046;-68
2022/04/18 10:54:13;;;;;;;8.05;1.75;;;;;;;;;;4993253;28;20122;-67
2022/04/18 10:56:48;;;;;;;5.15;1.70;;;;;;;;;;4994008;28;20602;-68
2022/04/18 10:59:15;;;;;;;5.35;1.45;;;;;;;;;;4994583;28;20046;-67
2022/04/18 11:01:41;;;;;;;6.20;1.27;;;;;;;;;;4994152;28;20029;-67
2022/04/18 11:04:11;;;;;;;8.85;1.67;;;;;;;;;;4994153;28;20038;-68
2022/04/18 11:06:36;;;;;;;7.57;2.00;;;;;;;;;;4993917;28;20043;-68
2022/04/18 11:09:09;;;;;;;7.75;1.70;;;;;;;;;;4994171;28;20452;-67
2022/04/18 11:11:54;;;;;;;7.60;2.00;;;;;;;;;;5009554;28;20394;-68
2022/04/18 11:14:27;;;;;;;4.65;1.67;;;;;;;;;;5013695;28;20042;-68
2022/04/18 11:17:02;;;;;;;5.65;1.50;;;;;;;;;;5013729;28;20041;-68
2022/04/18 11:19:37;;;;;;;8.65;1.80;;;;;;;;;;5013470;28;20038;-68
2022/04/18 11:22:05;;;;;;;4.13;1.58;;;;;;;;;;5013631;28;20133;-67
2022/04/18 11:24:42;;;;;;;5.72;1.98;;;;;;;;;;5013609;28;20037;-68
2022/04/18 11:27:14;;;;;;;10.02;2.15;;;;;;;;;;5013336;28;20485;-67
2022/04/18 11:29:42;;;;;;;13.07;1.92;;;;;;;;;;5028763;28;20045;-68
2022/04/18 11:32:08;;;;;;;11.82;1.75;;;;;;;;;;5013730;28;20065;-67
2022/04/18 11:34:35;;;;;;;5.63;1.60;;;;;;;;;;5012314;28;20057;-67
2022/04/18 11:37:03;;;;;;;10.70;2.17;;;;;;;;;;5013517;28;20141;-67
2022/04/18 11:39:48;;;;;;;8.30;1.88;;;;;;;;;;5013457;28;20042;-68
2022/04/18 11:42:17;;;;;;;9.75;2.15;;;;;;;;;;5014757;28;20034;-68
2022/04/18 11:44:44;;;;;;;8.00;1.90;;;;;;;;;;5032534;28;20121;-68
2022/04/18 11:47:23;;;;;;;11.65;2.60;;;;;;;;;;5017023;28;20038;-67
2022/04/18 11:49:54;;;;;;;11.75;2.53;;;;;;;;;;5017269;28;20042;-68
2022/04/18 11:52:24;;;;;;;10.23;1.80;;;;;;;;;;5017187;28;20370;-67
2022/04/18 11:55:03;;;;;;;9.65;2.30;;;;;;;;;;5017178;28;20037;-67
2022/04/18 11:57:31;;;;;;;11.73;2.28;;;;;;;;;;5017155;28;20061;-68
2022/04/18 11:59:57;;;;;;;10.25;1.83;;;;;;;;;;5032406;28;20066;-68
2022/04/18 12:08:06;;;;;;;15.73;2.15;;;;;;;;;;5016594;28;20092;-68
2022/04/18 12:10:35;;;;;;;19.52;2.55;;;;;;;;;;5009738;28;20484;-67
2022/04/18 12:13:04;;;;;;;8.52;2.45;;;;;;;;;;4996901;28;20525;-67
2022/04/18 12:15:30;;;;;;;13.43;2.15;;;;;;;;;;5012288;28;20038;-68
2022/04/18 12:17:57;;;;;;;11.40;2.40;;;;;;;;;;4997219;28;20073;-68
2022/04/18 12:20:23;;;;;;;10.93;2.15;;;;;;;;;;4997269;28;20077;-68
2022/04/18 12:22:51;;;;;;;9.63;1.92;;;;;;;;;;4997091;28;20037;-67
2022/04/18 12:25:24;;;;;;;11.13;1.65;;;;;;;;;;4996991;28;20109;-67
2022/04/18 12:27:49;;;;;;;10.20;2.25;;;;;;;;;;4996881;28;20049;-67
2022/04/18 12:30:16;;;;;;;10.05;1.98;;;;;;;;;;4996996;28;20038;-67
2022/04/18 12:32:44;;;;;;;10.40;1.80;;;;;;;;;;4996818;28;20057;-67
2022/04/18 12:35:10;;;;;;;11.20;2.25;;;;;;;;;;4997217;28;20045;-67
2022/04/18 12:37:35;;;;;;;14.82;2.35;;;;;;;;;;5011842;28;20030;-67
2022/04/18 12:40:21;;;;;;;12.63;2.20;;;;;;;;;;4996677;28;20043;-67
2022/04/18 12:42:50;;;;;;;9.57;2.13;;;;;;;;;;4995948;28;20050;-67
2022/04/18 12:45:16;;;;;;;10.18;2.10;;;;;;;;;;4996748;28;20498;-67
2022/04/18 12:47:41;;;;;;;9.30;1.90;;;;;;;;;;4996432;28;20072;-68
2022/04/18 12:50:14;;;;;;;13.60;2.33;;;;;;;;;;4996662;28;20057;-67
2022/04/18 12:52:47;;;;;;;13.40;2.00;;;;;;;;;;4996044;28;20049;-68
2022/04/18 12:55:12;;;;;;;10.00;2.10;;;;;;;;;;4996502;28;20031;-67
2022/04/18 12:57:38;;;;;;;8.02;1.60;;;;;;;;;;4996500;28;20038;-68
2022/04/18 13:00:16;;;;;;;10.88;1.95;;;;;;;;;;4996679;28;20023;-68
2022/04/18 13:03:06;;;;;;;8.23;2.15;;;;;;;;;;4995967;28;20505;-68
2022/04/18 13:05:33;;;;;;;11.00;2.30;;;;;;;;;;4990837;28;20045;-67
2022/04/18 13:08:05;;;;;;;7.32;2.08;;;;;;;;;;5011260;28;20038;-67
2022/04/18 13:10:32;;;;;;;8.90;2.17;;;;;;;;;;5002631;28;20042;-67
2022/04/18 13:13:02;;;;;;;9.02;1.38;;;;;;;;;;5015711;28;20052;-68
2022/04/18 13:15:27;;;;;;;10.60;1.90;;;;;;;;;;5015657;28;20037;-67
2022/04/18 13:18:04;;;;;;;12.30;2.42;;;;;;;;;;5030897;28;20029;-67
2022/04/18 13:20:31;;;;;;;9.30;1.80;;;;;;;;;;5015627;28;20038;-67
2022/04/18 13:22:57;;;;;;;10.80;2.22;;;;;;;;;;5015814;28;20088;-67
2022/04/18 13:25:23;;;;;;;14.90;2.28;;;;;;;;;;5015443;28;20034;-67
2022/04/18 13:27:49;;;;;;;15.98;1.90;;;;;;;;;;5015254;28;20042;-67
2022/04/18 13:30:14;;;;;;;10.77;2.05;;;;;;;;;;5015428;28;20041;-67
2022/04/18 13:32:40;;;;;;;10.50;1.63;;;;;;;;;;5013975;28;20038;-67
2022/04/18 13:35:06;;;;;;;7.40;1.90;;;;;;;;;;5015316;28;20045;-67
2022/04/18 13:37:31;;;;;;;7.50;1.75;;;;;;;;;;5015121;28;20034;-67
2022/04/18 13:39:56;;;;;;;10.55;2.38;;;;;;;;;;5014992;28;20033;-67
2022/04/18 13:42:22;;;;;;;11.10;2.33;;;;;;;;;;5015179;28;20033;-67
2022/04/18 13:44:47;;;;;;;8.02;2.33;;;;;;;;;;5015009;28;20476;-67
2022/04/18 13:47:13;;;;;;;6.35;1.75;;;;;;;;;;5015041;28;20042;-68
2022/04/18 13:49:40;;;;;;;8.57;2.35;;;;;;;;;;5014946;28;20154;-67
2022/04/18 13:52:09;;;;;;;10.73;1.75;;;;;;;;;;5013742;28;20030;-67
2022/04/18 13:54:38;;;;;;;6.75;1.60;;;;;;;;;;5014934;28;20132;-67
2022/04/18 13:57:05;;;;;;;7.63;1.63;;;;;;;;;;5030136;28;20067;-67
2022/04/18 13:59:31;;;;;;;5.97;1.80;;;;;;;;;;5013522;28;20470;-67
2022/04/18 14:01:56;;;;;;;12.60;1.88;;;;;;;;;;5014778;28;20053;-67
2022/04/18 14:04:22;;;;;;;11.80;1.92;;;;;;;;;;5014225;28;20474;-67
2022/04/18 14:06:47;;;;;;;9.13;2.05;;;;;;;;;;5014057;28;20065;-67
2022/04/18 14:09:13;;;;;;;7.68;1.67;;;;;;;;;;5012955;28;20053;-67
2022/04/18 14:11:40;;;;;;;8.23;1.95;;;;;;;;;;4998471;28;20069;-68
2022/04/18 14:14:06;;;;;;;7.43;1.75;;;;;;;;;;4994782;28;20466;-67
2022/04/18 14:22:00;;;;;;;4.30;1.17;;;;;;;;;;4994519;28;20385;-67
2022/04/18 14:24:26;;;;;;;8.00;1.20;;;;;;;;;;5009967;28;20279;-67
2022/04/18 14:26:51;;;;;;;8.07;1.77;;;;;;;;;;4994433;28;20042;-67
2022/04/18 14:29:17;;;;;;;6.65;1.30;;;;;;;;;;5010012;28;20498;-67
2022/04/18 14:31:43;;;;;;;6.15;1.50;;;;;;;;;;4994618;28;20038;-67
2022/04/18 14:34:08;;;;;;;4.88;1.70;;;;;;;;;;4994618;28;20367;-67
2022/04/18 14:36:34;;;;;;;5.72;1.50;;;;;;;;;;4994630;28;20105;-68
2022/04/18 14:39:00;;;;;;;5.93;1.15;;;;;;;;;;5009690;28;20034;-67
2022/04/18 14:41:26;;;;;;;3.25;1.40;;;;;;;;;;4994592;28;20035;-67
2022/04/18 14:43:51;;;;;;;3.30;1.00;;;;;;;;;;4994406;28;20060;-68
2022/04/18 14:46:16;;;;;;;2.60;0.85;;;;;;;;;;4994578;28;20038;-67
2022/04/18 14:48:42;;;;;;;3.13;1.10;;;;;;;;;;4994061;28;20490;-67
2022/04/18 14:51:07;;;;;;;6.97;1.20;;;;;;;;;;4994183;28;20035;-67
2022/04/18 14:53:33;;;;;;;5.63;1.15;;;;;;;;;;4994346;28;20038;-67
2022/04/18 14:55:58;;;;;;;4.22;1.15;;;;;;;;;;4994354;28;20050;-67
2022/04/18 14:58:24;;;;;;;4.30;1.00;;;;;;;;;;4994523;28;20529;-67
2022/04/18 15:00:49;;;;;;;5.70;1.20;;;;;;;;;;4994193;28;20390;-67
2022/04/18 15:03:15;;;;;;;4.38;1.40;;;;;;;;;;4994331;28;20038;-67
2022/04/18 15:05:41;;;;;;;5.50;1.60;;;;;;;;;;4994186;28;20478;-67
2022/04/18 15:08:06;;;;;;;2.97;1.05;;;;;;;;;;4994185;28;20071;-67